AGROMETEOROLOŠKI PORTAL

vinorodna pokrajina

Temelj dobrega kmetovanja

Pregled podatkov za lokacijo Kasaze (Mirosan), meteorološka postaja 516313

Pregled senzorjev na lokaciji

ID Ime Zadnja
vrednost
Datum in čas
meritve
(lokalni čas)
Tip
senzorja
6969 Omočenost lista (1,5 m) (U) 1 U 28.1.2023 07:00 A730WET
6970 Padavine (mm) 0 mm 28.1.2023 07:00 Generic 0.2 mm
6968 Relativna zračna vlaga (2 m) (%RH) 98 %RH 28.1.2023 07:00 50YA
6967 Temperatura (2 m) (°C) -2,5 °C 28.1.2023 07:00 50YA
6977 Hitrost vetra (3 m) (km/h) 0 km/h 28.1.2023 07:00 Generic 200 km/h

Pregled podatkov zadnjih 24 ur

Zap.
št.
Datum in čas
(lokalni čas)
Kasaze (Mirosan)
Omočenost
lista
(1,5
m)
Padavine Relativna
zračna
vlaga
(2
m)
Temperatura
(2
m)
Hitrost
vetra
(3
m)
1 28.1.2023 07:00 1 0 98 -2,5 0
2 28.1.2023 06:30 1 0 97,4 -2,4 0,9
3 28.1.2023 06:00 1 0 97,7 -2,5 0,6
4 28.1.2023 05:30 1 0 97,6 -2,6 0
5 28.1.2023 05:00 1 0 97,3 -2,5 0,9
6 28.1.2023 04:30 1 0 95,8 -2,4 1,3
7 28.1.2023 04:00 1 0 91,3 -1,9 2,9
8 28.1.2023 03:30 1 0 92,6 -2,1 2,5
9 28.1.2023 03:00 1 0 89,6 -1,8 2,5
10 28.1.2023 02:30 1 0 87,4 -1,4 5,2
11 28.1.2023 02:00 1 0 88,7 -1,5 4,9
12 28.1.2023 01:30 1 0 88,8 -1,4 5,9
13 28.1.2023 01:00 1 0 90,5 -1,6 5
14 28.1.2023 00:30 1 0 92 -1,9 3,9
15 28.1.2023 00:00 1 0 90,3 -1,4 4,6
16 27.1.2023 23:30 1 0 90,6 -1,2 3,8
17 27.1.2023 23:00 1 0 92,5 -1,3 3,1
18 27.1.2023 22:30 1 0 95,7 -1,4 2
19 27.1.2023 22:00 0 0 93,8 -1,2 4,3
20 27.1.2023 21:30 0 0 91,4 -1 5,1
21 27.1.2023 21:00 0 0 90,9 -1 5,2
22 27.1.2023 20:30 0 0 89,7 -0,9 5,5
23 27.1.2023 20:00 0 0 88,5 -0,9 8
24 27.1.2023 19:30 0 0 86,8 -0,7 9
25 27.1.2023 19:00 0 0 84,6 -0,6 10,1
26 27.1.2023 18:30 0 0 84 -0,4 8,2
27 27.1.2023 18:00 0 0 83,1 -0,3 9
28 27.1.2023 17:30 0 0 82,3 -0,1 8,1
29 27.1.2023 17:00 0 0 79 0,3 12,7
30 27.1.2023 16:30 0 0 69,9 1 13,1
31 27.1.2023 16:00 0 0 65,9 1,5 8
32 27.1.2023 15:30 0 0 65,7 1,8 8,1
33 27.1.2023 15:00 0 0 67,1 1,9 8,2
34 27.1.2023 14:30 0 0 69,5 1,7 6,2
35 27.1.2023 14:00 0 0 69,9 1,9 6,6
36 27.1.2023 13:30 0 0 71,3 1,6 5,8
37 27.1.2023 13:00 0 0 72,3 1,7 7,8
38 27.1.2023 12:30 0 0 72,8 1,6 10,9
39 27.1.2023 12:00 0 0 73,3 1,8 8,9
40 27.1.2023 11:30 0 0 74,3 1,5 8,8
41 27.1.2023 11:00 0 0 77,1 0,8 10,6
42 27.1.2023 10:30 0 0,2 78 0,4 8,6
43 27.1.2023 10:00 0 0 77,3 0,5 10,3
44 27.1.2023 09:30 0 0 76,6 0,4 7,7
45 27.1.2023 09:00 0 0 82,1 0 2,4
46 27.1.2023 08:30 0 0 84,2 -0,2 1,8
47 27.1.2023 08:00 0 0 82,3 -0,2 3,6
48 27.1.2023 07:30 0 0 84 -0,4 2,8